Time;durP1;ratioP1;P1;durP2;ratioP2;P2;SDS_P1;SDS_P2;PMS_P1;PMS_P2;Temp;Humidity;BMP_temperature;BMP_pressure;BME280_temperature;BME280_humidity;BME280_pressure;Samples;Min_cycle;Max_cycle;Signal;HPM_P1;HPM_P2
2023/06/25 00:01:35;;;;;;;7.00;4.63;;;17.60;95.70;;;17.57;89.16;97637.84;5031093;28;20077;-39
2023/06/25 00:04:00;;;;;;;6.15;4.35;;;17.60;96.10;;;17.49;89.49;97629.44;5036659;28;20167;-38
2023/06/25 00:06:26;;;;;;;6.32;4.35;;;17.50;96.20;;;17.51;87.42;97630.19;5032604;28;20471;-38
2023/06/25 00:08:52;;;;;;;5.63;4.25;;;17.50;95.80;;;17.48;88.75;97639.25;5037970;28;20032;-38
2023/06/25 00:11:17;;;;;;;5.72;4.80;;;17.50;96.20;;;17.45;89.69;97633.25;5038875;28;20056;-38
2023/06/25 00:13:43;;;;;;;6.70;4.68;;;17.50;96.50;;;17.41;90.27;97634.38;5037002;28;20041;-39
2023/06/25 00:16:09;;;;;;;7.32;5.15;;;17.40;96.70;;;17.33;89.97;97622.38;5034716;28;20434;-37
2023/06/25 00:18:35;;;;;;;6.38;5.05;;;17.40;96.70;;;17.35;91.24;97631.16;5032203;28;20041;-38
2023/06/25 00:21:05;;;;;;;8.15;4.97;;;17.40;97.00;;;17.32;91.61;97622.50;5029847;28;20091;-37
2023/06/25 00:23:31;;;;;;;5.90;4.45;;;17.30;97.30;;;17.25;92.75;97622.00;5025922;28;20031;-38
2023/06/25 00:25:56;;;;;;;6.93;4.50;;;17.30;97.50;;;17.24;91.87;97622.94;5034799;28;20036;-38
2023/06/25 00:28:22;;;;;;;6.85;4.63;;;17.30;97.40;;;17.23;91.01;97621.22;5034210;28;20037;-38
2023/06/25 00:30:48;;;;;;;7.28;4.85;;;17.30;97.30;;;17.25;89.70;97624.66;5038591;28;20036;-39
2023/06/25 00:33:13;;;;;;;7.82;4.55;;;17.30;97.20;;;17.25;90.94;97619.31;5030914;28;20037;-38
2023/06/25 00:35:51;;;;;;;6.18;4.40;;;17.30;97.50;;;17.21;93.01;97620.47;5034482;28;20099;-39
2023/06/25 00:38:17;;;;;;;6.05;4.47;;;17.30;98.00;;;17.16;94.32;97619.88;5037059;28;20151;-39
2023/06/25 00:40:44;;;;;;;4.97;4.03;;;17.20;98.30;;;17.12;94.69;97624.53;5035730;28;20049;-38
2023/06/25 00:43:10;;;;;;;4.80;3.67;;;17.10;98.40;;;17.09;93.48;97614.06;5019743;28;20021;-38
2023/06/25 00:45:35;;;;;;;5.95;4.20;;;17.10;98.30;;;17.07;93.34;97615.13;5029899;28;20043;-39
2023/06/25 00:48:04;;;;;;;5.32;4.03;;;17.10;98.30;;;17.05;92.61;97611.66;5038321;28;20454;-38
2023/06/25 00:50:30;;;;;;;7.05;4.45;;;17.10;98.20;;;17.05;92.39;97607.22;5038085;28;20024;-38
2023/06/25 00:52:57;;;;;;;7.43;4.18;;;17.10;98.30;;;17.04;93.87;97609.97;5037236;28;20068;-38
2023/06/25 00:55:23;;;;;;;7.55;4.50;;;17.10;98.70;;;17.00;93.89;97606.63;5035287;28;20413;-38
2023/06/25 00:57:51;;;;;;;7.25;4.20;;;17.10;98.80;;;16.98;93.66;97606.72;5033566;28;20049;-38
2023/06/25 01:00:18;;;;;;;6.72;4.00;;;17.00;98.80;;;16.95;96.26;97609.53;5033870;28;20044;-38
2023/06/25 01:03:02;;;;;;;5.30;4.13;;;17.00;99.40;;;16.91;96.59;97605.34;5031576;28;20033;-38
2023/06/25 01:05:55;;;;;;;5.93;4.60;;;17.00;99.60;;;16.83;96.50;97601.41;5032989;28;20017;-38
2023/06/25 01:08:22;;;;;;;8.00;4.72;;;16.90;99.60;;;16.82;96.68;97600.53;5018932;28;20044;-38
2023/06/25 01:10:48;;;;;;;6.32;4.75;;;16.90;99.80;;;16.79;98.60;97587.41;5033469;28;20033;-38
2023/06/25 01:13:13;;;;;;;8.88;4.72;;;16.80;99.90;;;16.75;100.00;97597.38;5018529;28;20469;-38
2023/06/25 01:15:39;;;;;;;6.13;4.25;;;16.80;99.90;;;16.70;100.00;97591.47;5028014;28;20043;-37
2023/06/25 01:18:06;;;;;;;5.82;4.45;;;16.80;99.90;;;16.67;100.00;97588.13;5028863;28;20036;-39
2023/06/25 01:20:32;;;;;;;7.05;5.25;;;16.70;99.90;;;16.63;100.00;97583.94;5017350;28;20472;-38
2023/06/25 01:22:58;;;;;;;7.60;4.93;;;16.70;99.90;;;16.55;100.00;97585.22;5038415;28;20486;-39
2023/06/25 01:25:25;;;;;;;7.30;5.30;;;16.70;99.90;;;16.56;100.00;97578.09;5031087;28;20392;-38
2023/06/25 01:27:51;;;;;;;6.80;5.35;;;16.60;99.90;;;16.56;100.00;97586.09;5031647;28;20056;-37
2023/06/25 01:30:18;;;;;;;7.40;5.45;;;16.60;99.90;;;16.54;100.00;97583.50;5032310;28;20058;-38
2023/06/25 01:32:44;;;;;;;8.23;5.65;;;16.60;99.90;;;16.52;100.00;97581.91;5034186;28;23188;-38
2023/06/25 01:35:15;;;;;;;8.27;5.90;;;16.50;99.90;;;16.50;100.00;97578.47;5034824;28;20426;-38
2023/06/25 01:37:40;;;;;;;8.13;5.70;;;16.50;99.90;;;16.41;100.00;97575.38;5032771;28;20495;-37
2023/06/25 01:40:10;;;;;;;7.55;5.15;;;16.50;99.90;;;16.43;100.00;97588.59;5036511;28;20474;-37
2023/06/25 01:42:36;;;;;;;8.00;5.60;;;16.50;99.90;;;16.39;100.00;97587.91;5030522;28;20041;-37
2023/06/25 01:45:03;;;;;;;8.02;5.60;;;16.40;99.90;;;16.37;100.00;97586.31;5034934;28;20127;-38
2023/06/25 01:47:28;;;;;;;9.38;5.80;;;16.40;99.90;;;16.34;100.00;97579.34;5033775;28;20025;-37
2023/06/25 01:49:54;;;;;;;8.57;5.60;;;16.40;99.90;;;16.31;100.00;97576.88;5036525;28;20489;-37
2023/06/25 01:52:20;;;;;;;7.68;5.43;;;16.30;99.90;;;16.28;100.00;97576.19;5032864;28;20031;-38
2023/06/25 01:54:46;;;;;;;7.95;5.38;;;16.30;99.90;;;16.20;100.00;97566.84;5030387;28;20084;-39
2023/06/25 01:57:13;;;;;;;7.63;5.65;;;16.30;99.90;;;16.21;100.00;97567.69;5032843;28;20028;-40
2023/06/25 01:59:39;;;;;;;8.07;5.57;;;16.30;99.90;;;16.16;100.00;97569.75;5034420;28;20037;-38
2023/06/25 02:02:05;;;;;;;9.55;5.72;;;16.20;99.90;;;16.13;100.00;97568.13;5034687;28;20029;-37
2023/06/25 02:04:31;;;;;;;8.60;5.55;;;16.20;99.90;;;16.09;100.00;97566.56;5015270;28;20033;-38
2023/06/25 02:06:57;;;;;;;7.65;5.72;;;16.20;99.90;;;16.08;100.00;97570.19;4998307;28;20041;-37
2023/06/25 02:09:22;;;;;;;7.43;5.47;;;16.10;99.90;;;16.06;100.00;97557.91;5035320;28;20082;-37
2023/06/25 02:11:48;;;;;;;9.50;6.20;;;16.10;99.90;;;15.95;100.00;97543.44;5024471;28;20430;-37
2023/06/25 02:14:14;;;;;;;8.75;5.72;;;16.10;99.90;;;16.00;100.00;97554.66;5032215;28;20044;-38
2023/06/25 02:16:40;;;;;;;9.88;6.53;;;16.10;99.90;;;15.98;100.00;97550.38;5019115;28;20032;-38
2023/06/25 02:19:05;;;;;;;10.20;6.25;;;16.00;99.90;;;15.94;100.00;97547.03;5033535;28;20044;-38
2023/06/25 02:21:31;;;;;;;8.73;6.25;;;16.00;99.90;;;15.93;100.00;97547.09;5036858;28;20479;-37
2023/06/25 02:23:57;;;;;;;9.18;6.65;;;16.00;99.90;;;15.91;100.00;97547.19;5035814;28;20028;-37
2023/06/25 02:26:23;;;;;;;9.68;6.75;;;16.00;99.90;;;15.90;100.00;97547.28;5027411;28;20037;-37
2023/06/25 02:28:48;;;;;;;9.63;6.80;;;16.00;99.90;;;15.86;100.00;97545.75;5037831;28;20025;-38
2023/06/25 02:31:14;;;;;;;11.02;6.60;;;15.90;99.90;;;15.83;100.00;97544.97;5035137;28;20166;-38
2023/06/25 02:33:40;;;;;;;10.30;6.40;;;15.90;99.90;;;15.75;100.00;97536.56;5035738;28;20037;-38
2023/06/25 02:36:06;;;;;;;7.53;6.15;;;15.90;99.90;;;15.76;100.00;97540.94;5031515;28;20066;-38
2023/06/25 02:38:32;;;;;;;8.85;6.57;;;15.80;99.90;;;15.75;100.00;97541.03;5033898;28;20056;-37
2023/06/25 02:40:57;;;;;;;8.70;6.63;;;15.80;99.90;;;15.72;100.00;97536.72;5027088;28;20227;-37
2023/06/25 02:43:23;;;;;;;8.18;5.88;;;15.80;99.90;;;15.70;100.00;97540.38;5029067;28;20114;-39
2023/06/25 02:45:49;;;;;;;11.77;6.57;;;15.80;99.90;;;15.68;100.00;97536.94;5026249;28;20418;-38
2023/06/25 02:48:14;;;;;;;11.80;7.07;;;15.70;99.90;;;15.66;100.00;97545.00;5031806;28;20025;-37
2023/06/25 02:50:40;;;;;;;9.10;6.63;;;15.70;99.90;;;15.65;100.00;97553.94;5025325;28;20041;-38
2023/06/25 02:53:06;;;;;;;11.50;6.78;;;15.70;99.90;;;15.62;100.00;97536.34;5028041;28;20036;-38
2023/06/25 02:55:32;;;;;;;9.55;7.38;;;15.70;99.90;;;15.62;100.00;97538.16;5031289;28;20043;-37
2023/06/25 02:57:57;;;;;;;14.35;8.30;;;15.70;99.90;;;15.60;100.00;97535.56;5032784;28;20410;-37
2023/06/25 03:00:23;;;;;;;12.52;7.57;;;15.70;99.90;;;15.57;100.00;97534.88;5030044;28;20037;-38
2023/06/25 03:02:49;;;;;;;12.98;7.35;;;15.70;99.90;;;15.53;100.00;97530.69;5033757;28;20079;-37
2023/06/25 03:05:14;;;;;;;10.73;7.03;;;15.60;99.90;;;15.52;100.00;97531.63;5027625;28;20387;-38
2023/06/25 03:07:55;;;;;;;10.93;7.68;;;15.60;99.90;;;15.50;100.00;97538.81;5031052;28;20138;-38
2023/06/25 03:10:26;;;;;;;10.23;7.13;;;15.60;99.90;;;15.46;100.00;97527.50;5027134;28;20033;-39
2023/06/25 03:12:52;;;;;;;11.48;8.18;;;15.60;99.90;;;15.44;100.00;97535.56;5034461;28;20033;-37
2023/06/25 03:15:18;;;;;;;11.35;7.68;;;15.50;99.90;;;15.44;100.00;97535.56;5029710;28;20029;-37
2023/06/25 03:17:44;;;;;;;12.23;7.28;;;15.50;99.90;;;15.43;100.00;97530.31;5031355;28;20433;-38
2023/06/25 03:20:11;;;;;;;12.77;7.07;;;15.50;99.90;;;15.40;100.00;97539.31;5030417;28;20090;-38
2023/06/25 03:22:37;;;;;;;9.52;6.55;;;15.50;99.90;;;15.36;100.00;97529.81;5030475;28;20021;-37
2023/06/25 03:25:03;;;;;;;9.07;6.10;;;15.50;99.90;;;15.38;100.00;97533.25;5033980;28;20402;-37
2023/06/25 03:27:34;;;;;;;10.98;6.57;;;15.50;99.90;;;15.40;100.00;97535.81;5031219;28;20469;-38
2023/06/25 03:30:00;;;;;;;8.18;6.20;;;15.50;99.90;;;15.39;100.00;97531.44;5030006;28;20629;-38
2023/06/25 03:32:25;;;;;;;9.85;6.30;;;15.50;99.90;;;15.33;100.00;97515.84;5033819;28;20512;-37
2023/06/25 03:34:51;;;;;;;12.65;7.53;;;15.50;99.90;;;15.38;100.00;97529.72;5009167;28;20465;-38
2023/06/25 03:37:17;;;;;;;9.63;6.32;;;15.50;99.90;;;15.36;100.00;97523.63;5028672;28;20032;-37
2023/06/25 03:39:43;;;;;;;11.20;6.95;;;15.50;99.90;;;15.34;100.00;97526.34;5032420;28;20043;-37
2023/06/25 03:42:09;;;;;;;11.02;7.10;;;15.50;99.90;;;15.36;100.00;97532.47;5032346;28;20056;-37
2023/06/25 03:44:34;;;;;;;8.57;6.40;;;15.50;99.90;;;15.35;100.00;97520.13;5035493;28;20489;-37
2023/06/25 03:47:00;;;;;;;8.25;6.35;;;15.50;99.90;;;15.34;100.00;97518.38;5030685;28;20033;-37
2023/06/25 03:49:26;;;;;;;9.95;6.45;;;15.50;99.90;;;15.31;100.00;97512.38;5030882;28;20065;-37
2023/06/25 03:51:51;;;;;;;10.68;6.93;;;15.50;99.90;;;15.36;100.00;97518.31;5027934;28;20025;-37
2023/06/25 03:54:17;;;;;;;8.75;6.55;;;15.50;99.90;;;15.37;100.00;97522.69;5030986;28;20029;-37
2023/06/25 03:56:43;;;;;;;9.15;6.32;;;15.50;99.90;;;15.38;100.00;97519.97;5033032;28;20029;-37
2023/06/25 03:59:08;;;;;;;9.50;6.35;;;15.50;99.90;;;15.39;100.00;97528.78;5029810;28;20044;-38
2023/06/25 04:01:34;;;;;;;8.00;5.55;;;15.50;99.90;;;15.41;100.00;97532.19;5035128;28;20033;-37
2023/06/25 04:04:00;;;;;;;6.95;5.53;;;15.50;99.90;;;15.42;100.00;97524.16;5039583;28;20057;-37
2023/06/25 04:06:25;;;;;;;9.80;5.35;;;15.50;99.90;;;15.45;100.00;97520.47;5035172;28;20383;-38
2023/06/25 04:08:51;;;;;;;8.73;5.43;;;15.60;99.90;;;15.46;100.00;97512.41;5038880;28;20028;-37
2023/06/25 04:11:17;;;;;;;8.23;5.63;;;15.60;99.90;;;15.53;100.00;97517.41;5020255;28;20039;-38
2023/06/25 04:13:43;;;;;;;7.75;5.00;;;15.60;99.90;;;15.59;100.00;97517.03;5039938;28;20021;-37
2023/06/25 04:16:09;;;;;;;8.75;5.72;;;15.70;99.90;;;15.66;100.00;97518.41;5036052;28;20466;-37
2023/06/25 04:18:37;;;;;;;7.38;5.60;;;15.70;99.90;;;15.73;100.00;97514.47;5036833;28;20037;-39
2023/06/25 04:21:04;;;;;;;6.47;5.07;;;15.80;99.90;;;15.81;100.00;97509.63;5032208;28;20049;-38
2023/06/25 04:23:30;;;;;;;8.00;5.10;;;15.90;99.90;;;15.92;100.00;97517.00;5034621;28;20078;-38
2023/06/25 04:25:55;;;;;;;6.80;4.63;;;16.00;99.90;;;16.00;100.00;97517.41;5017028;28;20041;-38
2023/06/25 04:28:21;;;;;;;7.90;5.20;;;16.10;99.90;;;16.08;100.00;97517.00;5040209;28;20053;-39
2023/06/25 04:30:47;;;;;;;5.97;4.55;;;16.20;99.90;;;16.16;100.00;97514.72;5035538;28;20527;-39
2023/06/25 04:33:12;;;;;;;6.70;4.35;;;16.30;99.90;;;16.25;100.00;97513.34;5035815;28;20087;-38
2023/06/25 04:35:38;;;;;;;6.65;4.90;;;16.40;99.90;;;16.34;100.00;97507.47;5035965;28;20155;-37
2023/06/25 04:38:04;;;;;;;6.38;4.35;;;16.40;99.90;;;16.45;100.00;97509.50;5036562;28;20033;-38
2023/06/25 04:40:30;;;;;;;8.90;4.85;;;16.50;99.90;;;16.47;100.00;97491.63;5037015;28;20033;-38
2023/06/25 04:42:56;;;;;;;8.20;4.78;;;16.60;99.90;;;16.61;100.00;97506.81;5036082;28;20523;-38
2023/06/25 04:45:21;;;;;;;9.18;5.18;;;16.70;99.90;;;16.67;100.00;97502.91;5034907;28;20033;-37
2023/06/25 04:47:47;;;;;;;7.93;4.50;;;16.70;99.90;;;16.75;100.00;97508.66;5029874;28;20033;-38
2023/06/25 04:50:13;;;;;;;5.93;4.50;;;16.80;99.90;;;16.84;100.00;97504.59;5035623;28;20044;-38
2023/06/25 04:52:39;;;;;;;5.97;4.68;;;16.90;99.90;;;16.91;100.00;97504.13;5037360;28;20040;-37
2023/06/25 04:55:05;;;;;;;6.45;5.00;;;17.00;99.90;;;16.98;100.00;97499.28;5033143;28;20033;-37
2023/06/25 04:57:31;;;;;;;6.07;4.40;;;17.10;99.90;;;17.07;100.00;97503.22;5033515;28;20129;-38
2023/06/25 04:59:57;;;;;;;6.15;4.38;;;17.20;99.90;;;17.18;100.00;97506.06;5033225;28;20033;-38
2023/06/25 05:02:23;;;;;;;5.80;4.40;;;17.30;99.90;;;17.28;100.00;97507.22;5027231;28;20076;-37
2023/06/25 05:04:48;;;;;;;8.00;4.72;;;17.40;99.90;;;17.39;100.00;97510.97;4999658;28;20033;-37
2023/06/25 05:07:14;;;;;;;7.93;4.38;;;17.50;99.90;;;17.48;100.00;97515.72;5033034;28;20064;-37
2023/06/25 05:09:40;;;;;;;6.28;4.70;;;17.60;99.90;;;17.58;97.35;97510.69;5036250;28;20049;-38
2023/06/25 05:12:06;;;;;;;4.25;3.38;;;17.70;99.90;;;17.67;95.92;97513.63;5033469;28;20021;-38
2023/06/25 05:14:31;;;;;;;5.35;4.28;;;17.80;99.90;;;17.80;95.30;97518.16;5036979;28;20060;-37
2023/06/25 05:16:57;;;;;;;6.35;4.53;;;17.90;99.90;;;17.89;90.74;97526.47;5035257;28;20521;-37
2023/06/25 05:19:23;;;;;;;4.90;4.13;;;18.00;99.90;;;18.02;88.58;97533.69;5034212;28;20480;-38
2023/06/25 05:21:49;;;;;;;4.85;4.05;;;18.10;99.90;;;18.12;86.80;97522.31;5036916;28;20033;-38
2023/06/25 05:24:14;;;;;;;5.32;4.13;;;18.20;99.90;;;18.29;82.35;97529.22;5034025;28;20025;-38
2023/06/25 05:26:40;;;;;;;6.70;4.20;;;18.30;99.90;;;18.63;81.54;97528.78;5032853;28;20246;-38
2023/06/25 05:29:06;;;;;;;5.80;4.25;;;18.50;99.90;;;18.85;78.64;97518.34;5031540;28;20083;-38
2023/06/25 05:31:31;;;;;;;5.18;4.18;;;18.70;99.90;;;19.53;75.64;97527.00;5034750;28;20045;-37
2023/06/25 05:33:57;;;;;;;5.60;4.32;;;19.00;99.90;;;20.37;68.91;97532.56;5033015;28;20037;-38
2023/06/25 05:36:23;;;;;;;5.60;4.28;;;19.50;99.90;;;20.86;65.13;97533.38;5028393;28;20032;-38
2023/06/25 05:38:49;;;;;;;7.97;4.10;;;19.90;99.90;;;20.91;65.43;97533.88;5029339;28;20032;-38
2023/06/25 05:41:14;;;;;;;6.57;4.47;;;20.20;99.90;;;20.76;65.29;97534.09;5032822;28;20032;-38
2023/06/25 05:43:40;;;;;;;4.75;3.83;;;20.20;99.90;;;20.55;66.85;97525.81;5033172;28;20053;-37
2023/06/25 05:46:11;;;;;;;7.85;5.13;;;20.20;99.90;;;20.40;65.32;97529.63;5031541;28;20441;-38
2023/06/25 05:48:38;;;;;;;6.90;4.40;;;20.20;99.90;;;20.25;68.01;97534.31;5035427;28;20039;-38
2023/06/25 05:51:04;;;;;;;4.93;4.20;;;20.20;99.90;;;20.10;68.71;97527.41;5023908;28;20044;-38
2023/06/25 05:53:42;;;;;;;8.05;5.00;;;20.20;99.90;;;20.11;67.49;97537.16;5025839;28;20216;-38
2023/06/25 05:56:08;;;;;;;5.35;4.55;;;20.10;99.90;;;20.07;66.12;97535.69;5030107;28;20063;-38
2023/06/25 05:58:35;;;;;;;4.78;4.25;;;20.20;99.90;;;20.16;67.44;97537.69;5032010;28;20108;-38
2023/06/25 06:01:01;;;;;;;6.28;4.57;;;20.20;99.90;;;20.22;66.15;97537.22;5002434;28;20624;-38
2023/06/25 06:03:26;;;;;;;5.18;4.43;;;20.30;99.90;;;20.32;66.28;97538.25;5019577;28;20112;-38
2023/06/25 06:05:55;;;;;;;5.97;4.53;;;20.30;99.90;;;20.45;65.60;97535.50;5025687;28;20037;-38
2023/06/25 06:08:21;;;;;;;5.40;4.47;;;20.40;99.90;;;20.56;61.64;97540.06;5030520;28;20136;-37
2023/06/25 06:10:46;;;;;;;5.45;4.00;;;20.50;99.90;;;20.70;60.97;97531.00;5026891;28;20406;-38
2023/06/25 06:13:12;;;;;;;5.57;4.00;;;20.60;99.90;;;20.83;61.77;97531.78;5030671;28;20029;-39
2023/06/25 06:15:38;;;;;;;8.05;4.53;;;20.80;99.90;;;20.98;58.74;97540.47;5028739;28;20094;-39
2023/06/25 06:18:03;;;;;;;6.32;4.55;;;20.90;99.40;;;21.10;56.64;97534.16;5031495;28;20037;-38
2023/06/25 06:20:29;;;;;;;8.35;4.13;;;21.00;98.60;;;21.24;57.18;97537.59;5029234;28;20612;-38
2023/06/25 06:22:57;;;;;;;6.53;4.43;;;21.10;98.50;;;21.26;55.93;97519.53;5028352;28;20264;-38
2023/06/25 06:25:23;;;;;;;5.57;4.20;;;21.30;98.10;;;21.51;55.69;97538.13;5033261;28;20715;-38
2023/06/25 06:27:49;;;;;;;5.43;4.00;;;21.40;97.90;;;21.64;55.44;97538.03;5031063;28;20041;-38
2023/06/25 06:30:14;;;;;;;4.90;4.22;;;21.50;97.80;;;21.82;55.27;97541.06;5023340;28;20041;-39
2023/06/25 06:32:40;;;;;;;5.57;4.40;;;21.60;97.50;;;21.93;53.34;97543.72;5033295;28;20082;-38
2023/06/25 06:35:06;;;;;;;6.05;4.18;;;21.80;96.90;;;21.97;51.64;97540.78;5029976;28;20037;-38
2023/06/25 06:37:31;;;;;;;5.53;4.10;;;21.80;95.80;;;22.10;53.15;97541.50;5026487;28;20657;-38
2023/06/25 06:39:58;;;;;;;5.40;4.00;;;21.90;96.10;;;22.19;52.36;97540.72;5027968;28;20564;-38
2023/06/25 06:42:23;;;;;;;5.63;3.97;;;22.00;96.00;;;22.39;52.54;97543.63;5027628;28;20033;-38
2023/06/25 06:44:49;;;;;;;4.82;4.05;;;22.20;96.20;;;22.53;51.32;97539.81;5026866;28;20040;-38
2023/06/25 06:47:15;;;;;;;6.30;4.30;;;22.30;95.60;;;22.67;50.51;97537.66;5024455;28;20741;-38
2023/06/25 06:49:41;;;;;;;5.70;4.25;;;22.40;94.80;;;22.85;50.05;97537.09;5030492;28;20033;-38
2023/06/25 06:52:07;;;;;;;5.32;4.13;;;22.50;94.80;;;23.02;49.65;97539.22;5028263;28;20029;-39
2023/06/25 06:54:32;;;;;;;5.95;4.38;;;22.80;94.40;;;23.16;48.42;97542.56;5026484;28;20079;-38
2023/06/25 06:56:58;;;;;;;5.22;4.72;;;22.90;93.40;;;23.24;47.23;97540.94;5029236;28;20036;-38
2023/06/25 06:59:24;;;;;;;5.75;3.95;;;22.90;93.00;;;23.34;46.82;97543.66;5030097;28;20122;-38
2023/06/25 07:01:49;;;;;;;7.03;4.90;;;23.10;92.50;;;23.38;46.52;97537.06;5022781;28;20037;-40
2023/06/25 07:04:15;;;;;;;5.63;4.32;;;23.10;92.10;;;23.53;46.73;97536.69;5025692;28;20059;-39
2023/06/25 07:06:41;;;;;;;7.88;4.18;;;23.20;92.10;;;23.59;45.30;97531.59;5025228;28;20032;-39
2023/06/25 07:09:06;;;;;;;5.88;4.65;;;23.30;91.00;;;23.66;44.84;97533.78;5033618;28;20025;-38
2023/06/25 07:11:32;;;;;;;6.10;4.43;;;23.40;90.90;;;23.71;44.65;97535.06;5029609;28;20110;-39
2023/06/25 07:13:58;;;;;;;6.40;4.60;;;23.50;90.60;;;23.77;44.26;97534.50;5030582;28;20047;-38
2023/06/25 07:16:24;;;;;;;7.75;4.80;;;23.50;89.70;;;23.86;45.28;97540.09;5025246;28;20036;-38
2023/06/25 07:18:49;;;;;;;8.52;5.00;;;23.60;90.40;;;23.93;44.29;97539.41;5014295;28;20087;-38
2023/06/25 07:21:15;;;;;;;5.97;5.00;;;23.80;89.90;;;23.93;43.88;97539.41;5022879;28;20638;-39
2023/06/25 07:23:41;;;;;;;7.18;5.07;;;23.80;88.30;;;23.95;43.62;97544.66;5027792;28;20040;-39
2023/06/25 07:26:06;;;;;;;6.15;4.78;;;23.80;88.10;;;24.00;43.18;97542.41;5008128;28;20071;-38
2023/06/25 07:28:32;;;;;;;6.40;4.88;;;23.80;87.60;;;24.08;43.10;97547.13;5030410;28;20469;-38
2023/06/25 07:30:58;;;;;;;4.63;4.15;;;23.90;86.30;;;24.13;42.42;97552.94;5030638;28;20045;-38
2023/06/25 07:33:23;;;;;;;7.45;5.00;;;23.90;85.90;;;24.15;41.53;97546.41;5024099;28;20036;-38
2023/06/25 07:35:49;;;;;;;7.03;5.10;;;23.90;84.20;;;24.19;41.63;97539.78;5031404;28;20036;-39
2023/06/25 07:38:15;;;;;;;7.00;5.80;;;24.00;83.60;;;24.19;41.81;97539.78;5029256;28;20032;-40
2023/06/25 07:40:40;;;;;;;6.55;4.93;;;24.00;83.20;;;24.19;42.59;97542.47;5028174;28;20036;-39
2023/06/25 07:43:06;;;;;;;6.82;5.13;;;24.00;84.70;;;24.26;42.36;97544.59;5031287;28;20657;-39
2023/06/25 07:45:32;;;;;;;7.47;5.55;;;24.10;83.90;;;24.31;41.49;97543.19;5036026;28;20090;-40
2023/06/25 07:47:57;;;;;;;7.78;5.55;;;24.10;82.70;;;24.41;43.02;97548.59;5029107;28;20510;-39
2023/06/25 07:50:23;;;;;;;6.45;5.50;;;24.20;84.80;;;24.47;41.45;97545.34;5033640;28;20041;-40
2023/06/25 07:52:49;;;;;;;8.80;5.13;;;24.30;82.50;;;24.54;41.34;97540.28;5030380;28;20514;-39
2023/06/25 07:55:15;;;;;;;6.40;5.60;;;24.30;82.20;;;24.56;40.72;97544.50;5026231;28;20035;-39
2023/06/25 07:57:40;;;;;;;7.75;5.70;;;24.40;80.50;;;24.60;40.74;97538.84;5028341;28;20036;-38
2023/06/25 08:00:07;;;;;;;7.03;5.88;;;24.50;81.10;;;24.69;40.43;97527.22;5022692;28;20041;-40
2023/06/25 08:02:32;;;;;;;7.25;5.85;;;24.50;79.90;;;24.81;41.62;97536.88;5030517;28;20139;-40
2023/06/25 08:04:58;;;;;;;8.50;6.45;;;24.60;81.90;;;24.87;40.59;97530.91;5031819;28;20040;-39
2023/06/25 08:07:24;;;;;;;7.35;6.00;;;24.70;80.20;;;24.87;40.03;97535.44;5036648;28;20052;-38
2023/06/25 08:09:50;;;;;;;7.82;6.25;;;24.70;79.40;;;24.88;39.61;97529.06;5037481;28;20040;-39
2023/06/25 08:12:16;;;;;;;7.38;5.90;;;24.70;78.30;;;24.84;39.24;97520.41;5031061;28;20037;-40
2023/06/25 08:14:42;;;;;;;7.43;6.30;;;24.70;77.50;;;24.88;39.45;97526.38;5036183;28;20029;-39
2023/06/25 08:17:08;;;;;;;7.45;6.00;;;24.70;76.60;;;24.93;38.63;97526.78;5034653;28;20029;-38
2023/06/25 08:19:33;;;;;;;8.35;5.60;;;24.80;77.00;;;25.01;39.35;97534.16;5034697;28;20114;-40
2023/06/25 08:21:59;;;;;;;6.63;5.90;;;24.80;76.30;;;25.11;38.49;97521.50;5029048;28;20499;-39
2023/06/25 08:24:25;;;;;;;7.82;6.72;;;24.90;75.40;;;25.23;39.54;97536.53;5032517;28;20124;-38
2023/06/25 08:26:50;;;;;;;7.93;5.65;;;25.00;76.60;;;25.38;38.69;97530.72;5035036;28;20025;-38
2023/06/25 08:29:16;;;;;;;7.38;6.07;;;25.20;75.20;;;25.40;38.21;97526.84;5027757;28;20025;-38
2023/06/25 08:31:42;;;;;;;8.38;6.32;;;25.20;74.20;;;25.50;38.11;97522.28;5033761;28;20399;-39
2023/06/25 08:34:07;;;;;;;8.23;6.15;;;25.30;74.30;;;25.52;36.95;97522.13;5031657;28;20049;-38
2023/06/25 08:36:33;;;;;;;8.27;6.35;;;25.40;72.20;;;25.49;36.84;97515.16;5033209;28;20069;-38
2023/06/25 08:38:59;;;;;;;7.50;5.88;;;25.40;72.10;;;25.68;37.64;97524.19;5033310;28;20384;-38
2023/06/25 08:41:26;;;;;;;8.38;6.57;;;25.40;72.70;;;25.66;36.06;97526.19;5027221;28;20120;-39
2023/06/25 08:43:53;;;;;;;8.75;6.60;;;25.50;70.30;;;25.71;36.18;97530.13;5018319;28;20060;-38
2023/06/25 08:46:22;;;;;;;7.97;6.13;;;25.50;70.90;;;25.75;36.04;97525.28;5019144;28;20029;-38
2023/06/25 08:48:52;;;;;;;8.05;6.15;;;25.50;69.60;;;25.78;36.74;97526.84;5031166;28;20025;-38
2023/06/25 08:51:22;;;;;;;7.35;6.03;;;25.60;70.40;;;25.87;35.64;97529.50;5030040;28;20583;-38
2023/06/25 08:53:48;;;;;;;7.90;6.25;;;25.70;68.50;;;25.92;35.69;97520.94;5033884;28;20044;-42
2023/06/25 08:56:16;;;;;;;11.18;6.38;;;25.70;69.10;;;25.91;35.63;97516.53;5031368;28;21840;-39
2023/06/25 08:58:42;;;;;;;7.68;6.30;;;25.70;68.40;;;25.97;36.97;97510.56;5028758;28;21664;-40
2023/06/25 09:01:10;;;;;;;7.47;6.30;;;25.80;70.80;;;25.96;34.68;97519.66;5030828;28;20039;-40
2023/06/25 09:03:35;;;;;;;8.32;6.50;;;25.80;67.40;;;25.97;36.19;97524.09;5032792;28;20025;-40
2023/06/25 09:06:01;;;;;;;8.00;6.32;;;25.80;67.90;;;25.90;36.75;97498.63;5035291;28;20029;-41
2023/06/25 09:08:28;;;;;;;7.90;6.35;;;25.80;69.50;;;26.09;37.52;97508.50;5035231;28;20418;-39
2023/06/25 09:10:55;;;;;;;10.85;6.65;;;25.90;70.10;;;26.17;36.07;97510.47;5030324;28;20132;-40
2023/06/25 09:13:26;;;;;;;8.05;6.43;;;26.00;69.00;;;26.32;34.77;97511.63;5032395;28;20266;-40
2023/06/25 09:16:01;;;;;;;8.48;6.22;;;26.00;66.50;;;26.36;35.63;97507.63;5035107;28;20060;-40
2023/06/25 09:18:26;;;;;;;8.73;6.80;;;26.20;68.20;;;26.44;35.27;97501.44;5031485;28;20040;-38
2023/06/25 09:20:53;;;;;;;7.30;6.50;;;26.20;67.40;;;26.52;34.37;97512.31;5026939;28;20032;-37
2023/06/25 09:23:20;;;;;;;8.35;6.07;;;26.30;65.70;;;26.44;33.69;97496.03;5032026;28;20085;-38
2023/06/25 09:25:46;;;;;;;8.23;6.18;;;26.30;64.60;;;26.41;34.36;97499.03;5027822;28;20055;-38
2023/06/25 09:28:12;;;;;;;8.05;6.05;;;26.20;64.50;;;26.38;34.81;97499.34;5018098;28;20026;-37
2023/06/25 09:30:41;;;;;;;7.07;5.85;;;26.20;65.60;;;26.38;33.84;97500.22;5024607;28;20120;-38
2023/06/25 09:33:08;;;;;;;7.95;5.95;;;26.20;63.70;;;26.43;32.42;97497.91;5024476;28;20450;-38
2023/06/25 09:35:34;;;;;;;8.35;5.93;;;26.30;61.50;;;26.46;33.75;97486.75;5032795;28;20386;-37
2023/06/25 09:38:02;;;;;;;8.27;6.35;;;26.30;63.90;;;26.55;32.13;97494.94;5026223;28;20024;-38
2023/06/25 09:40:28;;;;;;;7.13;6.20;;;26.40;61.20;;;26.58;33.21;97491.94;5025592;28;20039;-39
2023/06/25 09:42:57;;;;;;;7.95;6.07;;;26.40;62.20;;;26.61;32.23;97492.53;5029046;28;20037;-40
2023/06/25 09:45:24;;;;;;;7.47;5.93;;;26.40;60.50;;;26.61;32.19;97488.94;5017078;28;20029;-39
2023/06/25 09:47:53;;;;;;;7.25;6.00;;;26.40;60.40;;;26.65;33.14;97482.25;5028412;28;20028;-39
2023/06/25 09:50:22;;;;;;;7.57;6.10;;;26.40;61.80;;;26.74;32.92;97481.28;5029898;28;20086;-40
2023/06/25 09:53:03;;;;;;;7.45;6.00;;;26.50;61.10;;;26.81;30.55;97474.25;5033044;28;20039;-39
2023/06/25 09:55:29;;;;;;;7.65;5.88;;;26.60;58.20;;;26.87;31.32;97471.94;5030609;28;20724;-39
2023/06/25 09:57:56;;;;;;;7.40;6.05;;;26.70;58.70;;;26.91;31.53;97470.59;5032481;28;20033;-41
2023/06/25 10:00:24;;;;;;;7.25;5.63;;;26.70;58.40;;;26.92;30.97;97475.84;5029221;28;20040;-39
2023/06/25 10:02:52;;;;;;;7.72;5.82;;;26.80;57.30;;;26.96;32.35;97477.22;5025963;28;20037;-41
2023/06/25 10:05:18;;;;;;;6.95;5.88;;;26.80;58.50;;;26.94;29.88;97452.19;5028433;28;20063;-39
2023/06/25 10:07:44;;;;;;;6.90;5.53;;;26.90;56.00;;;27.11;29.92;97463.94;5031764;28;20025;-40
2023/06/25 10:10:27;;;;;;;7.13;5.93;;;26.90;56.00;;;27.17;29.17;97454.34;5031863;28;20638;-39
2023/06/25 10:12:53;;;;;;;6.97;5.60;;;27.00;54.80;;;27.25;30.11;97459.81;5029637;28;20048;-38